Time;durP1;ratioP1;P1;durP2;ratioP2;P2;SDS_P1;SDS_P2;PMS_P1;PMS_P2;Temp;Humidity;BMP_temperature;BMP_pressure;BME280_temperature;BME280_humidity;BME280_pressure;Samples;Min_cycle;Max_cycle;Signal;HPM_P1;HPM_P2
2021/07/23 00:01:00;;;;;;;;;;;;;;;19.62;55.44;94864.69;2969089;40;19932;-81
2021/07/23 00:03:01;;;;;;;;;;;;;;;19.71;55.08;94857.31;2963039;40;20036;-79
2021/07/23 00:05:03;;;;;;;;;;;;;;;19.81;54.70;94855.00;2962988;40;19969;-78
2021/07/23 00:07:05;;;;;;;;;;;;;;;19.86;54.44;94857.88;2967583;40;19951;-69
2021/07/23 00:09:06;;;;;;;;;;;;;;;19.92;54.08;94859.66;2970761;40;19940;-68
2021/07/23 00:11:08;;;;;;;;;;;;;;;20.00;53.63;94863.91;2966455;40;19940;-67
2021/07/23 00:13:09;;;;;;;;;;;;;;;20.04;53.63;94863.25;2965914;40;19932;-68
2021/07/23 00:15:11;;;;;;;;;;;;;;;20.10;53.72;94863.44;2965521;40;19944;-68
2021/07/23 00:17:13;;;;;;;;;;;;;;;20.15;53.40;94861.75;2961468;40;19952;-68
2021/07/23 00:19:15;;;;;;;;;;;;;;;20.17;53.30;94862.38;2958376;40;20254;-78
2021/07/23 00:21:16;;;;;;;;;;;;;;;20.17;53.21;94866.88;2970489;40;20020;-80
2021/07/23 00:23:18;;;;;;;;;;;;;;;20.20;53.35;94864.63;2967862;40;19943;-79
2021/07/23 00:25:19;;;;;;;;;;;;;;;20.15;53.42;94863.63;2966076;40;19944;-79
2021/07/23 00:27:21;;;;;;;;;;;;;;;20.13;53.47;94866.47;2967782;40;19951;-79
2021/07/23 00:29:22;;;;;;;;;;;;;;;20.18;53.47;94863.19;2968203;40;19992;-79
2021/07/23 00:31:24;;;;;;;;;;;;;;;20.25;53.28;94856.00;2969714;40;19948;-78
2021/07/23 00:33:26;;;;;;;;;;;;;;;20.24;53.33;94854.34;2967612;40;19944;-78
2021/07/23 00:35:28;;;;;;;;;;;;;;;20.25;53.13;94858.66;2969115;40;20222;-78
2021/07/23 00:37:30;;;;;;;;;;;;;;;20.27;52.94;94858.44;2961454;40;20313;-79
2021/07/23 00:39:31;;;;;;;;;;;;;;;20.25;53.02;94854.13;2969973;40;20241;-79
2021/07/23 00:41:33;;;;;;;;;;;;;;;20.25;53.14;94856.00;2965876;40;19945;-80
2021/07/23 00:43:35;;;;;;;;;;;;;;;20.26;53.17;94854.94;2968677;40;20206;-79
2021/07/23 00:45:36;;;;;;;;;;;;;;;20.23;53.23;94856.19;2968529;40;19989;-77
2021/07/23 00:47:38;;;;;;;;;;;;;;;20.25;53.19;94850.66;2967000;40;19944;-79
2021/07/23 00:49:40;;;;;;;;;;;;;;;20.31;53.01;94854.31;2958585;40;19941;-79
2021/07/23 00:51:41;;;;;;;;;;;;;;;20.36;52.84;94854.47;2967545;40;19932;-79
2021/07/23 00:53:43;;;;;;;;;;;;;;;20.38;52.82;94853.22;2958032;40;20274;-80
2021/07/23 00:55:49;;;;;;;;;;;;;;;20.41;52.57;94849.31;2958511;40;19952;-79
2021/07/23 00:57:51;;;;;;;;;;;;;;;20.45;52.75;94846.00;2958270;40;19969;-79
2021/07/23 00:59:53;;;;;;;;;;;;;;;20.52;52.56;94845.13;2954544;40;19937;-79
2021/07/23 01:01:54;;;;;;;;;;;;;;;20.55;52.66;94848.19;2969347;40;19944;-78
2021/07/23 01:03:56;;;;;;;;;;;;;;;20.57;52.84;94845.31;2967914;40;19973;-80
2021/07/23 01:05:58;;;;;;;;;;;;;;;20.56;52.91;94836.50;2965994;40;19928;-79
2021/07/23 01:08:00;;;;;;;;;;;;;;;20.54;53.01;94837.75;2962958;40;20190;-79
2021/07/23 01:10:02;;;;;;;;;;;;;;;20.54;53.10;94843.06;2966502;40;19929;-79
2021/07/23 01:12:04;;;;;;;;;;;;;;;20.53;53.11;94836.94;2963912;40;19929;-80
2021/07/23 01:14:06;;;;;;;;;;;;;;;20.52;53.11;94837.16;2967089;40;19969;-78
2021/07/23 01:16:07;;;;;;;;;;;;;;;20.46;53.31;94837.00;2965792;40;20362;-78
2021/07/23 01:18:09;;;;;;;;;;;;;;;20.44;53.34;94836.41;2968379;40;19951;-81
2021/07/23 01:20:17;;;;;;;;;;;;;;;20.36;53.21;94836.66;2967140;40;19928;-80
2021/07/23 01:22:20;;;;;;;;;;;;;;;20.34;53.34;94844.03;2971732;40;19960;-79
2021/07/23 01:24:22;;;;;;;;;;;;;;;20.34;53.34;94840.56;2970525;40;19936;-80
2021/07/23 01:26:23;;;;;;;;;;;;;;;20.31;53.18;94839.16;2970393;40;19940;-77
2021/07/23 01:28:26;;;;;;;;;;;;;;;20.34;53.50;94837.91;2968813;40;20214;-79
2021/07/23 01:30:27;;;;;;;;;;;;;;;20.30;53.56;94840.19;2967108;40;20021;-79
2021/07/23 01:32:29;;;;;;;;;;;;;;;20.31;53.46;94835.69;2963248;40;20770;-79
2021/07/23 01:34:30;;;;;;;;;;;;;;;20.28;53.48;94838.78;2964828;40;19956;-78
2021/07/23 01:36:32;;;;;;;;;;;;;;;20.22;53.48;94843.94;2967020;40;19940;-79
2021/07/23 01:38:33;;;;;;;;;;;;;;;20.20;53.80;94835.34;2968789;40;20387;-78
2021/07/23 01:40:35;;;;;;;;;;;;;;;20.22;53.64;94832.50;2965944;40;19996;-79
2021/07/23 01:42:37;;;;;;;;;;;;;;;20.23;53.60;94831.44;2959937;40;19940;-78
2021/07/23 01:44:38;;;;;;;;;;;;;;;20.25;53.55;94832.84;2960778;40;19953;-79
2021/07/23 01:46:40;;;;;;;;;;;;;;;20.24;53.72;94830.41;2960401;40;20039;-80
2021/07/23 01:48:42;;;;;;;;;;;;;;;20.27;53.86;94831.84;2970721;40;19958;-79
2021/07/23 01:50:43;;;;;;;;;;;;;;;20.26;53.81;94836.31;2967034;40;20021;-79
2021/07/23 01:52:45;;;;;;;;;;;;;;;20.28;53.78;94836.91;2966324;40;19954;-80
2021/07/23 01:54:46;;;;;;;;;;;;;;;20.27;53.80;94837.97;2968314;40;19932;-80
2021/07/23 01:56:48;;;;;;;;;;;;;;;20.24;54.02;94838.38;2968232;40;19928;-79
2021/07/23 01:58:49;;;;;;;;;;;;;;;20.21;54.27;94838.81;2958046;40;19932;-81
2021/07/23 02:00:51;;;;;;;;;;;;;;;19.94;54.37;94833.69;2967355;40;19932;-79
2021/07/23 02:02:53;;;;;;;;;;;;;;;19.55;55.35;94834.66;2970135;40;19947;-80
2021/07/23 02:04:56;;;;;;;;;;;;;;;19.37;55.97;94838.81;2964188;40;19939;-79
2021/07/23 02:06:57;;;;;;;;;;;;;;;19.36;56.45;94839.03;2958428;40;19955;-81
2021/07/23 02:08:59;;;;;;;;;;;;;;;19.39;56.82;94838.63;2966750;40;19932;-79
2021/07/23 02:11:00;;;;;;;;;;;;;;;19.51;56.28;94838.75;2966746;40;19932;-77
2021/07/23 02:13:04;;;;;;;;;;;;;;;19.55;56.13;94838.16;2967027;40;19998;-80
2021/07/23 02:15:06;;;;;;;;;;;;;;;19.65;55.93;94841.16;2967118;40;19952;-78
2021/07/23 02:17:08;;;;;;;;;;;;;;;19.69;55.70;94846.06;2967282;40;19944;-80
2021/07/23 02:19:10;;;;;;;;;;;;;;;19.74;55.45;94841.75;2957208;40;19939;-78
2021/07/23 02:21:11;;;;;;;;;;;;;;;19.72;55.21;94843.81;2962634;40;20284;-79
2021/07/23 02:23:13;;;;;;;;;;;;;;;19.61;55.62;94839.13;2965837;40;20013;-79
2021/07/23 02:25:15;;;;;;;;;;;;;;;19.47;55.92;94833.06;2958491;40;19936;-80
2021/07/23 02:27:16;;;;;;;;;;;;;;;19.43;56.15;94831.88;2961684;40;19928;-81
2021/07/23 02:29:19;;;;;;;;;;;;;;;19.33;55.96;94831.50;2958510;40;19937;-79
2021/07/23 02:31:20;;;;;;;;;;;;;;;19.25;56.18;94845.81;2960964;40;20029;-68
2021/07/23 02:33:22;;;;;;;;;;;;;;;19.13;56.28;94840.34;2964982;40;20198;-79
2021/07/23 02:35:24;;;;;;;;;;;;;;;18.37;58.33;94843.47;2958191;40;20518;-78
2021/07/23 02:37:25;;;;;;;;;;;;;;;18.32;58.56;94838.75;2965503;40;20069;-79
2021/07/23 02:39:27;;;;;;;;;;;;;;;18.41;58.43;94842.84;2966945;40;19944;-79
2021/07/23 02:41:28;;;;;;;;;;;;;;;18.54;58.15;94838.53;2966543;40;20378;-79
2021/07/23 02:43:30;;;;;;;;;;;;;;;18.67;57.63;94835.06;2967404;40;20209;-78
2021/07/23 02:45:31;;;;;;;;;;;;;;;18.74;57.48;94838.56;2958105;40;20195;-79
2021/07/23 02:47:33;;;;;;;;;;;;;;;18.75;57.36;94833.00;2961916;40;20068;-79
2021/07/23 02:49:35;;;;;;;;;;;;;;;18.74;57.42;94839.34;2966658;40;20473;-81
2021/07/23 02:51:36;;;;;;;;;;;;;;;18.38;58.20;94834.47;2967662;40;19964;-78
2021/07/23 02:53:38;;;;;;;;;;;;;;;18.35;58.49;94838.34;2972295;40;19964;-79
2021/07/23 02:55:39;;;;;;;;;;;;;;;18.33;58.72;94837.75;2965994;40;20000;-79
2021/07/23 02:57:41;;;;;;;;;;;;;;;18.36;58.76;94836.53;2966580;40;19952;-79
2021/07/23 02:59:42;;;;;;;;;;;;;;;18.44;58.56;94838.16;2968043;40;20611;-77
2021/07/23 03:01:44;;;;;;;;;;;;;;;18.17;58.83;94838.94;2968287;40;20004;-80
2021/07/23 03:03:46;;;;;;;;;;;;;;;17.72;60.47;94843.13;2968858;40;19934;-79
2021/07/23 03:05:47;;;;;;;;;;;;;;;17.57;61.03;94841.47;2962191;40;20041;-78
2021/07/23 03:07:52;;;;;;;;;;;;;;;17.70;60.80;94837.19;2961831;40;20290;-78
2021/07/23 03:09:54;;;;;;;;;;;;;;;17.81;60.40;94841.94;2967255;40;19940;-80
2021/07/23 03:11:57;;;;;;;;;;;;;;;17.85;60.13;94837.88;2969261;40;19944;-79
2021/07/23 03:13:59;;;;;;;;;;;;;;;17.76;60.45;94844.34;2971033;40;19945;-79
2021/07/23 03:16:01;;;;;;;;;;;;;;;17.51;61.46;94842.25;2962727;40;19936;-80
2021/07/23 03:18:02;;;;;;;;;;;;;;;17.53;61.49;94842.03;2965275;40;20329;-79
2021/07/23 03:20:05;;;;;;;;;;;;;;;17.65;60.84;94840.44;2966342;40;19936;-81
2021/07/23 03:22:06;;;;;;;;;;;;;;;17.80;60.45;94835.00;2966196;40;19952;-79
2021/07/23 03:24:08;;;;;;;;;;;;;;;17.99;59.84;94831.59;2964686;40;20017;-80
2021/07/23 03:26:09;;;;;;;;;;;;;;;18.11;59.63;94836.28;2966126;40;19943;-79
2021/07/23 03:28:11;;;;;;;;;;;;;;;18.25;59.07;94840.59;2969838;40;19948;-80
2021/07/23 03:30:13;;;;;;;;;;;;;;;18.40;58.37;94835.91;2969154;40;19977;-78
2021/07/23 03:32:14;;;;;;;;;;;;;;;18.52;57.98;94841.44;2969038;40;19936;-80
2021/07/23 03:34:16;;;;;;;;;;;;;;;18.61;57.73;94844.69;2970668;40;19940;-79
2021/07/23 03:36:17;;;;;;;;;;;;;;;18.63;57.78;94840.81;2969902;40;19940;-78
2021/07/23 03:38:19;;;;;;;;;;;;;;;18.69;57.51;94847.13;2964286;40;20029;-80
2021/07/23 03:40:20;;;;;;;;;;;;;;;18.73;57.34;94837.72;2964596;40;19936;-78
2021/07/23 03:42:22;;;;;;;;;;;;;;;18.75;57.39;94840.97;2968788;40;19939;-78
2021/07/23 03:44:24;;;;;;;;;;;;;;;18.76;57.49;94837.31;2968864;40;19944;-81
2021/07/23 03:46:25;;;;;;;;;;;;;;;18.78;57.27;94840.63;2972538;40;19944;-79
2021/07/23 03:48:27;;;;;;;;;;;;;;;18.87;56.67;94840.41;2968524;40;19948;-80
2021/07/23 03:50:28;;;;;;;;;;;;;;;18.93;56.39;94848.34;2963383;40;19936;-80
2021/07/23 03:52:30;;;;;;;;;;;;;;;18.99;56.42;94847.53;2968980;40;19981;-79
2021/07/23 03:54:31;;;;;;;;;;;;;;;19.02;56.20;94854.25;2964758;40;19948;-78
2021/07/23 03:56:33;;;;;;;;;;;;;;;19.08;56.15;94849.94;2978813;40;19940;-78
2021/07/23 03:58:36;;;;;;;;;;;;;;;19.11;55.80;94849.53;2973458;40;20010;-79
2021/07/23 04:00:37;;;;;;;;;;;;;;;19.13;55.89;94853.59;2975452;40;20031;-80
2021/07/23 04:02:39;;;;;;;;;;;;;;;19.18;55.80;94845.00;2977994;40;20033;-79
2021/07/23 04:04:41;;;;;;;;;;;;;;;19.27;55.68;94853.56;2974588;40;20218;-81
2021/07/23 04:06:43;;;;;;;;;;;;;;;19.28;55.55;94855.22;2977402;40;20487;-79
2021/07/23 04:08:44;;;;;;;;;;;;;;;19.22;55.73;94846.22;2980922;40;19948;-79
2021/07/23 04:10:46;;;;;;;;;;;;;;;18.84;57.04;94852.22;2979892;40;19979;-78
2021/07/23 04:12:47;;;;;;;;;;;;;;;18.61;57.87;94850.81;2975848;40;19928;-80
2021/07/23 04:14:49;;;;;;;;;;;;;;;18.67;57.84;94851.00;2976342;40;20073;-79
2021/07/23 04:16:51;;;;;;;;;;;;;;;18.70;57.49;94848.75;2980734;40;19932;-80
2021/07/23 04:18:52;;;;;;;;;;;;;;;18.65;57.71;94848.56;2981094;40;20486;-79
2021/07/23 04:20:54;;;;;;;;;;;;;;;18.41;58.33;94845.50;2976400;40;20049;-80
2021/07/23 04:22:56;;;;;;;;;;;;;;;18.34;58.47;94839.38;2973923;40;19952;-79
2021/07/23 04:24:57;;;;;;;;;;;;;;;18.38;58.54;94850.41;2968312;40;20105;-80
2021/07/23 04:26:59;;;;;;;;;;;;;;;18.36;58.60;94839.97;2968776;40;19951;-80
2021/07/23 04:29:01;;;;;;;;;;;;;;;18.46;58.22;94842.25;2968825;40;19940;-80
2021/07/23 04:31:02;;;;;;;;;;;;;;;18.58;58.01;94845.91;2970319;40;20029;-80
2021/07/23 04:33:04;;;;;;;;;;;;;;;18.52;58.12;94840.59;2968194;40;20130;-79
2021/07/23 04:35:06;;;;;;;;;;;;;;;18.66;57.98;94836.09;2968153;40;19992;-80
2021/07/23 04:37:07;;;;;;;;;;;;;;;18.78;57.64;94842.47;2972919;40;20292;-81
2021/07/23 04:39:09;;;;;;;;;;;;;;;18.87;57.12;94843.88;2965458;40;20241;-80
2021/07/23 04:41:12;;;;;;;;;;;;;;;18.87;56.89;94833.25;2968966;40;20272;-82
2021/07/23 04:43:13;;;;;;;;;;;;;;;18.91;57.14;94837.13;2967929;40;19955;-81
2021/07/23 04:45:33;;;;;;;;;;;;;;;18.61;57.70;94839.38;2956242;40;20018;-81
2021/07/23 04:47:36;;;;;;;;;;;;;;;18.14;59.04;94841.19;2966157;40;20250;-80
2021/07/23 04:49:38;;;;;;;;;;;;;;;18.00;59.83;94849.13;2967773;40;19963;-81
2021/07/23 04:51:39;;;;;;;;;;;;;;;18.16;59.59;94842.63;2970456;40;20082;-79
2021/07/23 04:53:41;;;;;;;;;;;;;;;18.36;59.28;94841.81;2962750;40;19948;-80
2021/07/23 04:55:47;;;;;;;;;;;;;;;18.44;58.85;94846.94;2972580;40;20023;-79
2021/07/23 04:57:49;;;;;;;;;;;;;;;18.38;58.91;94840.59;2971895;40;19929;-80
2021/07/23 04:59:51;;;;;;;;;;;;;;;18.35;58.91;94838.34;2967543;40;20029;-66
2021/07/23 05:01:52;;;;;;;;;;;;;;;18.36;59.28;94837.31;2970551;40;20290;-66
2021/07/23 05:03:54;;;;;;;;;;;;;;;18.59;58.46;94833.47;2967122;40;20120;-68
2021/07/23 05:05:56;;;;;;;;;;;;;;;18.76;58.03;94836.50;2960547;40;19944;-67
2021/07/23 05:07:57;;;;;;;;;;;;;;;18.92;57.80;94832.63;2953014;40;20029;-68
2021/07/23 05:09:59;;;;;;;;;;;;;;;19.08;57.29;94831.34;2966280;40;19955;-69
2021/07/23 05:12:01;;;;;;;;;;;;;;;19.11;56.96;94834.41;2968078;40;19944;-68
2021/07/23 05:14:02;;;;;;;;;;;;;;;19.13;56.84;94837.69;2968047;40;20229;-68
2021/07/23 05:16:04;;;;;;;;;;;;;;;19.24;56.83;94829.06;2961209;40;19937;-68
2021/07/23 05:18:07;;;;;;;;;;;;;;;19.31;56.47;94836.19;2961189;40;19932;-68
2021/07/23 05:20:08;;;;;;;;;;;;;;;19.35;56.08;94829.44;2963998;40;19960;-69
2021/07/23 05:22:11;;;;;;;;;;;;;;;19.43;55.70;94837.19;2968135;40;20316;-67
2021/07/23 05:24:12;;;;;;;;;;;;;;;19.28;56.31;94837.44;2969516;40;20537;-67
2021/07/23 05:26:14;;;;;;;;;;;;;;;19.39;56.20;94831.47;2965638;40;20385;-67
2021/07/23 05:28:15;;;;;;;;;;;;;;;19.57;55.77;94829.94;2972053;40;19948;-67
2021/07/23 05:30:37;;;;;;;;;;;;;;;19.77;55.08;94835.22;2963748;40;20284;-69
2021/07/23 05:32:39;;;;;;;;;;;;;;;19.59;55.43;94838.53;2966463;40;19960;-71
2021/07/23 05:34:41;;;;;;;;;;;;;;;19.62;55.26;94838.94;2966973;40;20106;-69
2021/07/23 05:36:42;;;;;;;;;;;;;;;19.69;55.18;94840.75;2962625;40;19965;-70
2021/07/23 05:38:44;;;;;;;;;;;;;;;19.90;55.04;94839.66;2968207;40;20266;-68
2021/07/23 05:40:45;;;;;;;;;;;;;;;20.09;54.53;94845.84;2968495;40;20033;-68
2021/07/23 05:42:47;;;;;;;;;;;;;;;19.71;55.06;94839.53;2968365;40;19948;-68
2021/07/23 05:44:49;;;;;;;;;;;;;;;19.67;55.71;94837.47;2968408;40;19951;-70
2021/07/23 05:46:50;;;;;;;;;;;;;;;19.75;55.53;94845.25;2967815;40;20224;-69
2021/07/23 05:48:52;;;;;;;;;;;;;;;19.95;54.85;94839.81;2969721;40;19978;-69
2021/07/23 05:50:53;;;;;;;;;;;;;;;19.98;54.83;94842.03;2965332;40;19938;-68
2021/07/23 05:52:55;;;;;;;;;;;;;;;19.97;54.89;94838.56;2970749;40;20021;-70
2021/07/23 05:54:57;;;;;;;;;;;;;;;19.87;54.97;94837.41;2968301;39;19972;-70
2021/07/23 05:56:58;;;;;;;;;;;;;;;19.80;55.28;94838.25;2972088;40;19988;-69
2021/07/23 05:59:01;;;;;;;;;;;;;;;19.91;55.27;94839.41;2969015;40;19940;-66
2021/07/23 06:01:06;;;;;;;;;;;;;;;20.08;54.53;94844.25;2967989;40;20304;-68
2021/07/23 06:03:08;;;;;;;;;;;;;;;20.22;53.96;94840.47;2959680;40;20050;-69
2021/07/23 06:05:10;;;;;;;;;;;;;;;20.24;54.19;94835.72;2968034;40;20284;-69
2021/07/23 06:07:14;;;;;;;;;;;;;;;20.33;54.03;94839.78;2968982;40;20065;-69
2021/07/23 06:09:16;;;;;;;;;;;;;;;20.60;53.66;94836.91;2965027;40;19958;-69
2021/07/23 06:11:18;;;;;;;;;;;;;;;20.66;52.85;94841.38;2966440;40;20056;-67
2021/07/23 06:13:19;;;;;;;;;;;;;;;20.55;53.24;94836.72;2964553;40;19995;-71
2021/07/23 06:15:31;;;;;;;;;;;;;;;20.38;53.67;94834.59;2956697;39;20289;-69
2021/07/23 06:17:33;;;;;;;;;;;;;;;20.40;54.03;94835.19;2949525;40;19937;-68
2021/07/23 06:19:36;;;;;;;;;;;;;;;20.35;53.79;94828.88;2947878;40;19946;-69
2021/07/23 06:21:38;;;;;;;;;;;;;;;20.46;53.75;94834.34;2948713;40;20098;-69
2021/07/23 06:23:39;;;;;;;;;;;;;;;20.39;54.18;94844.22;2948911;40;19964;-67
2021/07/23 06:25:41;;;;;;;;;;;;;;;20.41;53.82;94842.16;2949183;40;19959;-68
2021/07/23 06:27:46;;;;;;;;;;;;;;;20.13;54.86;94836.41;2947951;40;19952;-70
2021/07/23 06:29:49;;;;;;;;;;;;;;;20.48;54.11;94835.94;2946622;40;19950;-69
2021/07/23 06:31:51;;;;;;;;;;;;;;;20.69;53.41;94829.47;2952533;40;20307;-66
2021/07/23 06:33:53;;;;;;;;;;;;;;;20.75;53.14;94825.94;2950307;40;19937;-69
2021/07/23 06:35:55;;;;;;;;;;;;;;;20.84;52.75;94830.78;2947792;40;19985;-68
2021/07/23 06:37:57;;;;;;;;;;;;;;;21.00;52.67;94831.22;2950842;40;19937;-69
2021/07/23 06:39:59;;;;;;;;;;;;;;;21.07;52.18;94829.31;2947155;40;20294;-82
2021/07/23 06:42:00;;;;;;;;;;;;;;;20.89;52.57;94835.44;2955286;40;20063;-80
2021/07/23 06:44:02;;;;;;;;;;;;;;;21.00;52.74;94828.56;2949861;40;19990;-81
2021/07/23 06:46:04;;;;;;;;;;;;;;;20.92;53.27;94832.31;2950072;40;19941;-80
2021/07/23 06:48:06;;;;;;;;;;;;;;;20.92;53.23;94831.50;2951086;40;19949;-82
2021/07/23 06:50:08;;;;;;;;;;;;;;;20.93;52.61;94833.13;2949702;40;19938;-81
2021/07/23 06:52:09;;;;;;;;;;;;;;;20.91;52.65;94827.22;2950015;40;19985;-82
2021/07/23 06:54:11;;;;;;;;;;;;;;;20.99;52.51;94821.59;2949086;40;20319;-81
2021/07/23 06:56:13;;;;;;;;;;;;;;;20.84;52.36;94821.94;2965214;40;19965;-80
2021/07/23 06:58:15;;;;;;;;;;;;;;;20.80;53.03;94818.94;2940813;40;20020;-82
2021/07/23 07:00:21;;;;;;;;;;;;;;;20.69;53.07;94816.97;2948489;40;19944;-81
2021/07/23 07:02:22;;;;;;;;;;;;;;;20.98;51.97;94825.31;2948669;40;19991;-80
2021/07/23 07:04:24;;;;;;;;;;;;;;;21.21;50.69;94819.34;2949653;40;19973;-81
2021/07/23 07:06:25;;;;;;;;;;;;;;;21.53;49.80;94816.50;2951146;40;20215;-80
2021/07/23 07:08:27;;;;;;;;;;;;;;;21.87;49.13;94823.84;2950982;40;20403;-82
2021/07/23 07:10:29;;;;;;;;;;;;;;;21.64;50.88;94819.25;2949033;40;20021;-79
2021/07/23 07:12:30;;;;;;;;;;;;;;;21.75;50.36;94812.34;2948919;40;20027;-82
2021/07/23 07:14:32;;;;;;;;;;;;;;;21.64;51.22;94819.25;2954198;40;19941;-82
2021/07/23 07:16:33;;;;;;;;;;;;;;;21.67;51.02;94816.13;2961728;40;20008;-82
2021/07/23 07:18:35;;;;;;;;;;;;;;;21.96;50.34;94813.69;2956127;40;19949;-80
2021/07/23 07:20:37;;;;;;;;;;;;;;;22.03;50.18;94813.59;2970535;39;20021;-84
2021/07/23 07:22:38;;;;;;;;;;;;;;;22.17;49.76;94803.53;2958462;40;20297;-80
2021/07/23 07:24:40;;;;;;;;;;;;;;;22.29;49.86;94801.75;2958556;40;19949;-82
2021/07/23 07:26:42;;;;;;;;;;;;;;;22.53;49.31;94796.44;2952711;40;20278;-81
2021/07/23 07:28:44;;;;;;;;;;;;;;;22.82;49.08;94800.88;2952773;40;19941;-82
2021/07/23 07:30:46;;;;;;;;;;;;;;;22.75;48.00;94800.16;2952241;40;19989;-82
2021/07/23 07:32:47;;;;;;;;;;;;;;;22.59;47.70;94793.66;2965295;40;20308;-83
2021/07/23 07:34:49;;;;;;;;;;;;;;;22.79;47.93;94795.97;2951317;40;19957;-81
2021/07/23 07:36:50;;;;;;;;;;;;;;;22.63;48.19;94799.34;2952259;40;19949;-80
2021/07/23 07:38:52;;;;;;;;;;;;;;;22.74;48.01;94787.84;2951938;40;19937;-68
2021/07/23 07:40:53;;;;;;;;;;;;;;;22.79;47.24;94798.63;2949013;40;19997;-68
2021/07/23 07:42:55;;;;;;;;;;;;;;;22.59;47.50;94795.50;2949903;40;20878;-69
2021/07/23 07:44:57;;;;;;;;;;;;;;;22.52;47.74;94805.47;2950365;40;20034;-69
2021/07/23 07:46:59;;;;;;;;;;;;;;;22.47;47.44;94793.63;2949555;40;19943;-68
2021/07/23 07:49:00;;;;;;;;;;;;;;;22.41;47.25;94794.56;2949161;40;19948;-68
2021/07/23 07:51:02;;;;;;;;;;;;;;;22.77;46.88;94794.59;2949718;40;19948;-70
2021/07/23 07:53:14;;;;;;;;;;;;;;;23.17;46.48;94793.88;2945697;40;19965;-70
2021/07/23 07:55:17;;;;;;;;;;;;;;;23.48;45.88;94792.63;2948055;40;19956;-70
2021/07/23 07:57:18;;;;;;;;;;;;;;;23.11;44.53;94798.31;2951181;40;19945;-69
2021/07/23 07:59:20;;;;;;;;;;;;;;;23.00;45.29;94794.59;2950081;40;19945;-70
2021/07/23 08:01:22;;;;;;;;;;;;;;;23.02;45.34;94794.38;2946902;40;19949;-69
2021/07/23 08:03:23;;;;;;;;;;;;;;;22.99;44.99;94789.44;2948357;40;19944;-71
2021/07/23 08:05:25;;;;;;;;;;;;;;;23.27;44.75;94792.25;2952349;40;19940;-70
2021/07/23 08:07:32;;;;;;;;;;;;;;;23.61;44.63;94795.03;2964404;40;19972;-69
2021/07/23 08:09:45;;;;;;;;;;;;;;;23.52;44.57;94786.56;2950590;40;20022;-68
2021/07/23 08:11:47;;;;;;;;;;;;;;;23.61;43.77;94799.56;2949669;40;20043;-68
2021/07/23 08:13:49;;;;;;;;;;;;;;;23.40;43.16;94787.66;2945450;40;20448;-70
2021/07/23 08:15:50;;;;;;;;;;;;;;;22.96;44.06;94789.94;2948828;40;20360;-68
2021/07/23 08:17:54;;;;;;;;;;;;;;;23.18;42.92;94782.94;2965053;40;19985;-68
2021/07/23 08:19:57;;;;;;;;;;;;;;;23.21;42.60;94797.69;2947035;40;20035;-70
2021/07/23 08:21:58;;;;;;;;;;;;;;;23.09;42.05;94798.53;2949714;40;20047;-70
2021/07/23 08:24:00;;;;;;;;;;;;;;;23.26;42.67;94790.59;2949806;40;19954;-70
2021/07/23 08:26:04;;;;;;;;;;;;;;;23.42;41.94;94789.03;2964316;40;19933;-70
2021/07/23 08:28:05;;;;;;;;;;;;;;;23.25;41.69;94788.16;2964916;40;20327;-71
2021/07/23 08:30:07;;;;;;;;;;;;;;;23.57;40.81;94788.53;2949135;40;19941;-69
2021/07/23 08:32:09;;;;;;;;;;;;;;;23.68;40.99;94794.88;2950073;40;19961;-71
2021/07/23 08:34:11;;;;;;;;;;;;;;;23.81;40.52;94791.97;2948680;40;19948;-70
2021/07/23 08:36:13;;;;;;;;;;;;;;;23.91;38.80;94788.66;2948257;40;20041;-69
2021/07/23 08:38:14;;;;;;;;;;;;;;;24.17;38.66;94784.56;2950180;40;20024;-70
2021/07/23 08:40:16;;;;;;;;;;;;;;;24.56;38.85;94782.00;2953468;40;20011;-69
2021/07/23 08:42:30;;;;;;;;;;;;;;;24.96;38.27;94782.88;2965592;40;19952;-69
2021/07/23 08:44:31;;;;;;;;;;;;;;;25.13;36.80;94772.91;2947353;40;19942;-70
2021/07/23 08:46:33;;;;;;;;;;;;;;;25.23;36.19;94774.94;2946518;40;20034;-70
2021/07/23 08:48:35;;;;;;;;;;;;;;;25.37;36.17;94780.75;2963639;40;19952;-70
2021/07/23 08:50:37;;;;;;;;;;;;;;;25.39;35.40;94774.06;2965101;40;20293;-72
2021/07/23 08:52:39;;;;;;;;;;;;;;;25.58;34.09;94779.94;2949140;40;19945;-71
2021/07/23 08:54:41;;;;;;;;;;;;;;;25.81;33.89;94775.34;2944024;40;19953;-71
2021/07/23 08:56:48;;;;;;;;;;;;;;;25.91;33.07;94775.47;2948645;40;19938;-69
2021/07/23 08:58:50;;;;;;;;;;;;;;;26.03;33.59;94778.81;2951011;40;20030;-69
2021/07/23 09:00:58;;;;;;;;;;;;;;;26.11;33.66;94773.00;2949714;40;20446;-69
2021/07/23 09:03:03;;;;;;;;;;;;;;;25.89;33.77;94772.25;2948502;40;19941;-68
2021/07/23 09:05:14;;;;;;;;;;;;;;;25.64;34.42;94768.22;2953130;40;19936;-68
2021/07/23 09:07:17;;;;;;;;;;;;;;;25.41;33.02;94768.47;2965279;40;19991;-69
2021/07/23 09:09:19;;;;;;;;;;;;;;;25.10;33.97;94765.34;2949436;40;19941;-69
2021/07/23 09:11:26;;;;;;;;;;;;;;;25.28;32.80;94767.78;2951189;40;19949;-70
2021/07/23 09:13:27;;;;;;;;;;;;;;;25.40;32.86;94762.28;2948174;40;19945;-70
2021/07/23 09:15:37;;;;;;;;;;;;;;;25.47;33.73;94759.44;2950794;40;20350;-69
2021/07/23 09:17:41;;;;;;;;;;;;;;;25.37;32.12;94767.34;2950424;40;20363;-68
2021/07/23 09:19:43;;;;;;;;;;;;;;;25.56;32.56;94759.78;2950409;40;19945;-67
2021/07/23 09:21:45;;;;;;;;;;;;;;;25.79;32.40;94758.69;2951008;40;20023;-69
2021/07/23 09:23:48;;;;;;;;;;;;;;;25.86;31.76;94762.78;2948269;40;20018;-68
2021/07/23 09:25:50;;;;;;;;;;;;;;;25.93;32.46;94759.94;2969922;39;20033;-70
2021/07/23 09:27:51;;;;;;;;;;;;;;;26.03;32.65;94768.09;2951318;40;19938;-70
2021/07/23 09:29:53;;;;;;;;;;;;;;;26.05;32.52;94747.19;2950464;40;20026;-70
2021/07/23 09:32:07;;;;;;;;;;;;;;;26.06;32.07;94758.72;2950265;40;19953;-70
2021/07/23 09:34:09;;;;;;;;;;;;;;;25.97;30.78;94761.06;2953108;40;21618;-71
2021/07/23 09:36:11;;;;;;;;;;;;;;;25.46;32.59;94749.75;2949650;40;19949;-69
2021/07/23 09:38:12;;;;;;;;;;;;;;;25.56;32.33;94755.22;2965597;40;20040;-69
2021/07/23 09:40:14;;;;;;;;;;;;;;;25.67;31.83;94746.22;2965451;40;20290;-68
2021/07/23 09:42:20;;;;;;;;;;;;;;;25.95;31.90;94747.06;2949248;40;19941;-68
2021/07/23 09:44:25;;;;;;;;;;;;;;;25.70;31.50;94740.34;2950713;40;19991;-70
2021/07/23 09:46:33;;;;;;;;;;;;;;;25.46;31.99;94742.50;2964786;40;19999;-69
2021/07/23 09:48:35;;;;;;;;;;;;;;;25.64;32.09;94741.38;2947267;40;19944;-69
2021/07/23 09:50:44;;;;;;;;;;;;;;;25.76;32.13;94738.53;2949616;40;20022;-69
2021/07/23 09:52:46;;;;;;;;;;;;;;;26.03;31.17;94733.19;2948582;40;19937;-69
2021/07/23 09:54:47;;;;;;;;;;;;;;;25.92;31.12;94728.78;2955426;40;20035;-69
2021/07/23 09:56:49;;;;;;;;;;;;;;;26.27;30.72;94730.19;2945217;40;20037;-73
2021/07/23 09:58:57;;;;;;;;;;;;;;;26.30;30.54;94726.97;2950437;40;19964;-69
2021/07/23 10:01:01;;;;;;;;;;;;;;;26.46;31.15;94726.03;2965207;40;20401;-68
2021/07/23 10:03:07;;;;;;;;;;;;;;;26.11;31.05;94729.22;2947886;40;19976;-69
2021/07/23 10:05:10;;;;;;;;;;;;;;;26.50;30.06;94724.44;2960056;40;19943;-68
2021/07/23 10:07:21;;;;;;;;;;;;;;;26.31;29.93;94726.72;2950275;40;20031;-69
2021/07/23 10:09:26;;;;;;;;;;;;;;;26.24;30.36;94727.97;2947917;40;19948;-69
2021/07/23 10:11:27;;;;;;;;;;;;;;;25.86;30.26;94719.06;2945446;40;19969;-69
2021/07/23 10:13:30;;;;;;;;;;;;;;;26.04;30.18;94713.31;2956283;40;19981;-70
2021/07/23 10:15:31;;;;;;;;;;;;;;;26.03;30.58;94710.88;2945758;40;20000;-69
2021/07/23 10:17:33;;;;;;;;;;;;;;;26.47;30.30;94714.19;2948271;40;20026;-68
2021/07/23 10:19:38;;;;;;;;;;;;;;;26.74;29.96;94710.66;2949098;40;19949;-68
2021/07/23 10:21:40;;;;;;;;;;;;;;;26.97;29.28;94712.09;2948646;40;20031;-67
2021/07/23 10:23:42;;;;;;;;;;;;;;;27.18;28.98;94700.34;2941523;40;19937;-70
2021/07/23 10:25:44;;;;;;;;;;;;;;;27.37;29.55;94708.78;2946249;40;19956;-69
2021/07/23 10:27:46;;;;;;;;;;;;;;;27.51;29.12;94709.13;2945393;40;20016;-69
2021/07/23 10:29:48;;;;;;;;;;;;;;;27.57;27.58;94715.31;2949363;40;19949;-68
2021/07/23 10:31:49;;;;;;;;;;;;;;;27.77;26.90;94709.19;2949945;40;19948;-67
2021/07/23 10:33:52;;;;;;;;;;;;;;;27.83;26.70;94707.28;2949431;40;20253;-68
2021/07/23 10:35:54;;;;;;;;;;;;;;;27.48;27.04;94706.16;2965653;40;19969;-69
2021/07/23 10:37:55;;;;;;;;;;;;;;;27.05;27.72;94700.84;2949764;40;19952;-67